sensor_id;sensor_type;location;lat;lon;timestamp;temperature;humidity
19908;DHT22;10116;53.112;7.356;2022-07-09T00:02:04;27.80;99.90
19908;DHT22;10116;53.112;7.356;2022-07-09T00:04:29;27.80;99.90
19908;DHT22;10116;53.112;7.356;2022-07-09T00:06:55;27.80;99.90
19908;DHT22;10116;53.112;7.356;2022-07-09T00:09:21;27.80;99.90
19908;DHT22;10116;53.112;7.356;2022-07-09T00:11:47;27.80;99.90
19908;DHT22;10116;53.112;7.356;2022-07-09T00:14:12;27.80;99.90
19908;DHT22;10116;53.112;7.356;2022-07-09T00:16:38;27.80;99.90
19908;DHT22;10116;53.112;7.356;2022-07-09T00:19:03;27.80;99.90
19908;DHT22;10116;53.112;7.356;2022-07-09T00:21:29;27.80;99.90
19908;DHT22;10116;53.112;7.356;2022-07-09T00:23:55;27.80;99.90
19908;DHT22;10116;53.112;7.356;2022-07-09T00:26:21;27.80;99.90
19908;DHT22;10116;53.112;7.356;2022-07-09T00:28:46;27.80;99.90
19908;DHT22;10116;53.112;7.356;2022-07-09T00:31:12;27.80;99.90
19908;DHT22;10116;53.112;7.356;2022-07-09T00:33:38;27.80;99.90
19908;DHT22;10116;53.112;7.356;2022-07-09T00:36:03;27.80;99.90
19908;DHT22;10116;53.112;7.356;2022-07-09T00:38:29;27.80;99.90
19908;DHT22;10116;53.112;7.356;2022-07-09T00:40:55;27.80;99.90
19908;DHT22;10116;53.112;7.356;2022-07-09T00:43:22;27.80;99.90
19908;DHT22;10116;53.112;7.356;2022-07-09T00:45:48;27.80;99.90
19908;DHT22;10116;53.112;7.356;2022-07-09T00:48:14;27.70;99.90
19908;DHT22;10116;53.112;7.356;2022-07-09T00:50:42;27.80;99.90
19908;DHT22;10116;53.112;7.356;2022-07-09T00:53:10;27.80;99.90
19908;DHT22;10116;53.112;7.356;2022-07-09T00:55:37;27.80;99.90
19908;DHT22;10116;53.112;7.356;2022-07-09T00:58:03;27.80;99.90
19908;DHT22;10116;53.112;7.356;2022-07-09T01:00:29;27.80;99.90
19908;DHT22;10116;53.112;7.356;2022-07-09T01:02:55;27.80;99.90
19908;DHT22;10116;53.112;7.356;2022-07-09T01:05:21;27.70;99.90
19908;DHT22;10116;53.112;7.356;2022-07-09T01:07:47;27.80;99.90
19908;DHT22;10116;53.112;7.356;2022-07-09T01:10:13;27.70;99.90
19908;DHT22;10116;53.112;7.356;2022-07-09T01:12:38;27.80;99.90
19908;DHT22;10116;53.112;7.356;2022-07-09T01:15:05;27.70;99.90
19908;DHT22;10116;53.112;7.356;2022-07-09T01:17:40;27.70;99.90
19908;DHT22;10116;53.112;7.356;2022-07-09T01:20:07;27.70;99.90
19908;DHT22;10116;53.112;7.356;2022-07-09T01:22:34;27.70;99.90
19908;DHT22;10116;53.112;7.356;2022-07-09T01:25:01;27.70;99.90
19908;DHT22;10116;53.112;7.356;2022-07-09T01:27:30;27.70;99.90
19908;DHT22;10116;53.112;7.356;2022-07-09T01:29:55;27.70;99.90
19908;DHT22;10116;53.112;7.356;2022-07-09T01:32:21;27.70;99.90
19908;DHT22;10116;53.112;7.356;2022-07-09T01:34:47;27.70;99.90
19908;DHT22;10116;53.112;7.356;2022-07-09T01:37:12;27.70;99.90
19908;DHT22;10116;53.112;7.356;2022-07-09T01:39:38;27.70;99.90
19908;DHT22;10116;53.112;7.356;2022-07-09T01:42:16;27.70;99.90
19908;DHT22;10116;53.112;7.356;2022-07-09T01:44:42;27.70;99.90
19908;DHT22;10116;53.112;7.356;2022-07-09T01:47:07;27.70;99.90
19908;DHT22;10116;53.112;7.356;2022-07-09T01:49:33;27.60;99.90
19908;DHT22;10116;53.112;7.356;2022-07-09T01:51:59;27.60;99.90
19908;DHT22;10116;53.112;7.356;2022-07-09T01:54:24;27.60;99.90
19908;DHT22;10116;53.112;7.356;2022-07-09T01:56:50;27.60;99.90
19908;DHT22;10116;53.112;7.356;2022-07-09T01:59:16;27.60;99.90
19908;DHT22;10116;53.112;7.356;2022-07-09T02:01:42;27.60;99.90
19908;DHT22;10116;53.112;7.356;2022-07-09T02:04:07;27.60;99.90
19908;DHT22;10116;53.112;7.356;2022-07-09T02:06:33;27.60;99.90
19908;DHT22;10116;53.112;7.356;2022-07-09T02:08:59;27.60;99.90
19908;DHT22;10116;53.112;7.356;2022-07-09T02:11:24;27.60;99.90
19908;DHT22;10116;53.112;7.356;2022-07-09T02:13:50;27.60;99.90
19908;DHT22;10116;53.112;7.356;2022-07-09T02:16:15;27.60;99.90
19908;DHT22;10116;53.112;7.356;2022-07-09T02:18:41;27.60;99.90
19908;DHT22;10116;53.112;7.356;2022-07-09T02:21:07;27.60;99.90
19908;DHT22;10116;53.112;7.356;2022-07-09T02:23:32;27.60;99.90
19908;DHT22;10116;53.112;7.356;2022-07-09T02:25:58;27.50;99.90
19908;DHT22;10116;53.112;7.356;2022-07-09T02:28:24;27.50;99.90
19908;DHT22;10116;53.112;7.356;2022-07-09T02:30:49;27.50;99.90
19908;DHT22;10116;53.112;7.356;2022-07-09T02:33:15;27.50;99.90
19908;DHT22;10116;53.112;7.356;2022-07-09T02:35:40;27.50;99.90
19908;DHT22;10116;53.112;7.356;2022-07-09T02:38:06;27.50;99.90
19908;DHT22;10116;53.112;7.356;2022-07-09T02:40:32;27.50;99.90
19908;DHT22;10116;53.112;7.356;2022-07-09T02:42:57;27.50;99.90
19908;DHT22;10116;53.112;7.356;2022-07-09T02:45:23;27.50;99.90
19908;DHT22;10116;53.112;7.356;2022-07-09T02:47:48;27.50;99.90
19908;DHT22;10116;53.112;7.356;2022-07-09T02:50:14;27.50;99.90
19908;DHT22;10116;53.112;7.356;2022-07-09T02:52:39;27.50;99.90
19908;DHT22;10116;53.112;7.356;2022-07-09T02:55:05;27.50;99.90
19908;DHT22;10116;53.112;7.356;2022-07-09T02:57:31;27.50;99.90
19908;DHT22;10116;53.112;7.356;2022-07-09T02:59:57;27.50;99.90
19908;DHT22;10116;53.112;7.356;2022-07-09T03:02:22;27.50;99.90
19908;DHT22;10116;53.112;7.356;2022-07-09T03:04:48;27.50;99.90
19908;DHT22;10116;53.112;7.356;2022-07-09T03:07:14;27.50;99.90
19908;DHT22;10116;53.112;7.356;2022-07-09T03:09:39;27.50;99.90
19908;DHT22;10116;53.112;7.356;2022-07-09T03:12:06;27.50;99.90
19908;DHT22;10116;53.112;7.356;2022-07-09T03:14:31;27.40;99.90
19908;DHT22;10116;53.112;7.356;2022-07-09T03:16:57;27.40;99.90
19908;DHT22;10116;53.112;7.356;2022-07-09T03:19:23;27.40;99.90
19908;DHT22;10116;53.112;7.356;2022-07-09T03:21:48;27.40;99.90
19908;DHT22;10116;53.112;7.356;2022-07-09T03:24:14;27.40;99.90
19908;DHT22;10116;53.112;7.356;2022-07-09T03:26:39;27.40;99.90
19908;DHT22;10116;53.112;7.356;2022-07-09T03:29:05;27.40;99.90
19908;DHT22;10116;53.112;7.356;2022-07-09T03:31:31;27.40;99.90
19908;DHT22;10116;53.112;7.356;2022-07-09T03:33:56;27.40;99.90
19908;DHT22;10116;53.112;7.356;2022-07-09T03:36:22;27.50;99.90
19908;DHT22;10116;53.112;7.356;2022-07-09T03:38:48;27.50;99.90
19908;DHT22;10116;53.112;7.356;2022-07-09T03:41:14;27.60;99.90
19908;DHT22;10116;53.112;7.356;2022-07-09T03:43:39;27.60;99.90
19908;DHT22;10116;53.112;7.356;2022-07-09T03:46:05;27.60;99.90
19908;DHT22;10116;53.112;7.356;2022-07-09T03:48:30;27.70;99.90
19908;DHT22;10116;53.112;7.356;2022-07-09T03:50:56;27.70;99.90
19908;DHT22;10116;53.112;7.356;2022-07-09T03:53:22;27.70;99.90
19908;DHT22;10116;53.112;7.356;2022-07-09T03:55:47;27.70;99.90
19908;DHT22;10116;53.112;7.356;2022-07-09T03:58:13;27.70;99.90
19908;DHT22;10116;53.112;7.356;2022-07-09T04:00:39;27.70;99.90
19908;DHT22;10116;53.112;7.356;2022-07-09T04:03:04;27.70;99.90
19908;DHT22;10116;53.112;7.356;2022-07-09T04:05:30;27.70;99.90
19908;DHT22;10116;53.112;7.356;2022-07-09T04:07:56;27.70;99.90
19908;DHT22;10116;53.112;7.356;2022-07-09T04:10:22;27.70;99.90
19908;DHT22;10116;53.112;7.356;2022-07-09T04:12:47;27.70;99.90
19908;DHT22;10116;53.112;7.356;2022-07-09T04:15:13;27.70;99.90
19908;DHT22;10116;53.112;7.356;2022-07-09T04:17:39;27.70;99.90
19908;DHT22;10116;53.112;7.356;2022-07-09T04:20:05;27.70;99.90
19908;DHT22;10116;53.112;7.356;2022-07-09T04:22:31;27.70;99.90
19908;DHT22;10116;53.112;7.356;2022-07-09T04:24:56;27.70;99.90
19908;DHT22;10116;53.112;7.356;2022-07-09T04:27:22;27.70;99.90
19908;DHT22;10116;53.112;7.356;2022-07-09T04:29:47;27.70;99.90
19908;DHT22;10116;53.112;7.356;2022-07-09T04:32:13;27.70;99.90
19908;DHT22;10116;53.112;7.356;2022-07-09T04:34:41;27.70;99.90
19908;DHT22;10116;53.112;7.356;2022-07-09T04:37:06;27.70;99.90
19908;DHT22;10116;53.112;7.356;2022-07-09T04:39:32;27.70;99.90
19908;DHT22;10116;53.112;7.356;2022-07-09T04:41:58;27.70;99.90
19908;DHT22;10116;53.112;7.356;2022-07-09T04:44:24;27.70;99.90
19908;DHT22;10116;53.112;7.356;2022-07-09T04:46:49;27.60;99.90
19908;DHT22;10116;53.112;7.356;2022-07-09T04:49:15;27.60;99.90
19908;DHT22;10116;53.112;7.356;2022-07-09T04:51:40;27.60;99.90
19908;DHT22;10116;53.112;7.356;2022-07-09T04:54:06;27.60;99.90
19908;DHT22;10116;53.112;7.356;2022-07-09T04:56:32;27.60;99.90
19908;DHT22;10116;53.112;7.356;2022-07-09T04:58:57;27.60;99.90
19908;DHT22;10116;53.112;7.356;2022-07-09T05:01:25;27.60;99.90
19908;DHT22;10116;53.112;7.356;2022-07-09T05:03:52;27.60;99.90
19908;DHT22;10116;53.112;7.356;2022-07-09T05:06:18;27.60;99.90
19908;DHT22;10116;53.112;7.356;2022-07-09T05:08:45;27.60;99.90
19908;DHT22;10116;53.112;7.356;2022-07-09T05:11:11;27.70;99.90
19908;DHT22;10116;53.112;7.356;2022-07-09T05:13:37;27.70;99.90
19908;DHT22;10116;53.112;7.356;2022-07-09T05:16:05;27.80;99.90
19908;DHT22;10116;53.112;7.356;2022-07-09T05:18:31;27.80;99.90
19908;DHT22;10116;53.112;7.356;2022-07-09T05:20:57;27.80;99.90
19908;DHT22;10116;53.112;7.356;2022-07-09T05:23:22;27.90;99.90
19908;DHT22;10116;53.112;7.356;2022-07-09T05:25:48;27.90;99.90
19908;DHT22;10116;53.112;7.356;2022-07-09T05:28:14;27.90;99.90
19908;DHT22;10116;53.112;7.356;2022-07-09T05:30:39;27.90;99.90
19908;DHT22;10116;53.112;7.356;2022-07-09T05:33:06;27.90;99.90
19908;DHT22;10116;53.112;7.356;2022-07-09T05:35:32;27.90;99.90
19908;DHT22;10116;53.112;7.356;2022-07-09T05:37:58;27.90;99.90
19908;DHT22;10116;53.112;7.356;2022-07-09T05:40:23;27.90;99.90
19908;DHT22;10116;53.112;7.356;2022-07-09T05:42:49;27.90;99.90
19908;DHT22;10116;53.112;7.356;2022-07-09T05:45:15;27.90;99.90
19908;DHT22;10116;53.112;7.356;2022-07-09T05:47:41;27.80;99.90
19908;DHT22;10116;53.112;7.356;2022-07-09T05:50:07;27.90;99.90
19908;DHT22;10116;53.112;7.356;2022-07-09T05:52:32;27.90;99.90
19908;DHT22;10116;53.112;7.356;2022-07-09T05:54:58;27.80;99.90
19908;DHT22;10116;53.112;7.356;2022-07-09T05:57:24;27.80;99.90
19908;DHT22;10116;53.112;7.356;2022-07-09T05:59:49;27.80;99.90
19908;DHT22;10116;53.112;7.356;2022-07-09T06:02:15;27.80;99.90
19908;DHT22;10116;53.112;7.356;2022-07-09T06:04:41;27.80;99.90
19908;DHT22;10116;53.112;7.356;2022-07-09T06:07:06;27.80;99.90
19908;DHT22;10116;53.112;7.356;2022-07-09T06:09:32;27.80;99.90
19908;DHT22;10116;53.112;7.356;2022-07-09T06:11:57;27.80;99.90
19908;DHT22;10116;53.112;7.356;2022-07-09T06:14:23;27.70;99.90
19908;DHT22;10116;53.112;7.356;2022-07-09T06:16:49;27.80;99.90
19908;DHT22;10116;53.112;7.356;2022-07-09T06:19:14;27.70;99.90
19908;DHT22;10116;53.112;7.356;2022-07-09T06:21:41;27.70;99.90
19908;DHT22;10116;53.112;7.356;2022-07-09T06:24:06;27.70;99.90
19908;DHT22;10116;53.112;7.356;2022-07-09T06:26:32;27.70;99.90
19908;DHT22;10116;53.112;7.356;2022-07-09T06:28:59;27.70;99.90
19908;DHT22;10116;53.112;7.356;2022-07-09T06:31:25;27.70;99.90
19908;DHT22;10116;53.112;7.356;2022-07-09T06:33:50;27.70;99.90
19908;DHT22;10116;53.112;7.356;2022-07-09T06:36:16;27.70;99.90
19908;DHT22;10116;53.112;7.356;2022-07-09T06:38:42;27.70;99.90
19908;DHT22;10116;53.112;7.356;2022-07-09T06:41:26;27.70;99.90
19908;DHT22;10116;53.112;7.356;2022-07-09T06:43:52;27.70;99.90
19908;DHT22;10116;53.112;7.356;2022-07-09T06:46:17;27.80;99.90
19908;DHT22;10116;53.112;7.356;2022-07-09T06:48:43;27.90;99.90
19908;DHT22;10116;53.112;7.356;2022-07-09T06:51:08;27.90;99.90
19908;DHT22;10116;53.112;7.356;2022-07-09T06:53:34;27.90;99.90
19908;DHT22;10116;53.112;7.356;2022-07-09T06:55:59;28.00;99.90
19908;DHT22;10116;53.112;7.356;2022-07-09T06:58:25;27.90;99.90
19908;DHT22;10116;53.112;7.356;2022-07-09T07:00:51;27.90;99.90
19908;DHT22;10116;53.112;7.356;2022-07-09T07:03:16;28.00;99.90
19908;DHT22;10116;53.112;7.356;2022-07-09T07:05:42;28.00;99.90
19908;DHT22;10116;53.112;7.356;2022-07-09T07:08:07;28.00;99.90
19908;DHT22;10116;53.112;7.356;2022-07-09T07:10:33;28.00;99.90
19908;DHT22;10116;53.112;7.356;2022-07-09T07:12:59;28.00;99.90
19908;DHT22;10116;53.112;7.356;2022-07-09T07:15:24;28.00;99.90
19908;DHT22;10116;53.112;7.356;2022-07-09T07:17:50;28.00;99.90
19908;DHT22;10116;53.112;7.356;2022-07-09T07:20:15;27.90;99.90
19908;DHT22;10116;53.112;7.356;2022-07-09T07:22:44;27.90;99.90
19908;DHT22;10116;53.112;7.356;2022-07-09T07:25:10;27.90;99.90
19908;DHT22;10116;53.112;7.356;2022-07-09T07:27:36;27.90;99.90
19908;DHT22;10116;53.112;7.356;2022-07-09T07:30:02;27.90;99.90
19908;DHT22;10116;53.112;7.356;2022-07-09T07:32:28;27.90;99.90
19908;DHT22;10116;53.112;7.356;2022-07-09T07:34:54;27.90;99.90
19908;DHT22;10116;53.112;7.356;2022-07-09T07:37:20;27.90;99.90
19908;DHT22;10116;53.112;7.356;2022-07-09T07:39:45;27.90;99.90
19908;DHT22;10116;53.112;7.356;2022-07-09T07:42:13;27.90;99.90
19908;DHT22;10116;53.112;7.356;2022-07-09T07:44:39;27.90;99.90
19908;DHT22;10116;53.112;7.356;2022-07-09T07:47:04;27.90;99.90
19908;DHT22;10116;53.112;7.356;2022-07-09T07:49:30;27.90;99.90
19908;DHT22;10116;53.112;7.356;2022-07-09T07:51:55;27.80;99.90
19908;DHT22;10116;53.112;7.356;2022-07-09T07:54:21;27.80;99.90
19908;DHT22;10116;53.112;7.356;2022-07-09T07:56:46;27.80;99.90
19908;DHT22;10116;53.112;7.356;2022-07-09T07:59:12;27.80;99.90
19908;DHT22;10116;53.112;7.356;2022-07-09T08:01:38;27.80;99.90
19908;DHT22;10116;53.112;7.356;2022-07-09T08:04:04;27.80;99.90
19908;DHT22;10116;53.112;7.356;2022-07-09T08:06:29;27.80;99.90
19908;DHT22;10116;53.112;7.356;2022-07-09T08:08:55;27.80;99.90
19908;DHT22;10116;53.112;7.356;2022-07-09T08:11:20;27.80;99.90
19908;DHT22;10116;53.112;7.356;2022-07-09T08:13:46;27.80;99.90
19908;DHT22;10116;53.112;7.356;2022-07-09T08:16:12;27.80;99.90
19908;DHT22;10116;53.112;7.356;2022-07-09T08:18:37;27.80;99.90
19908;DHT22;10116;53.112;7.356;2022-07-09T08:21:03;27.80;99.90
19908;DHT22;10116;53.112;7.356;2022-07-09T08:23:29;27.80;99.90
19908;DHT22;10116;53.112;7.356;2022-07-09T08:25:54;27.80;99.90
19908;DHT22;10116;53.112;7.356;2022-07-09T08:28:20;27.70;99.90
19908;DHT22;10116;53.112;7.356;2022-07-09T08:30:45;27.70;99.90
19908;DHT22;10116;53.112;7.356;2022-07-09T08:33:11;27.80;99.90
19908;DHT22;10116;53.112;7.356;2022-07-09T08:35:36;27.70;99.90
19908;DHT22;10116;53.112;7.356;2022-07-09T08:38:02;27.70;99.90
19908;DHT22;10116;53.112;7.356;2022-07-09T08:40:28;27.70;99.90
19908;DHT22;10116;53.112;7.356;2022-07-09T08:42:56;27.70;99.90
19908;DHT22;10116;53.112;7.356;2022-07-09T08:45:23;27.70;99.90
19908;DHT22;10116;53.112;7.356;2022-07-09T08:47:52;27.70;99.90
19908;DHT22;10116;53.112;7.356;2022-07-09T08:50:18;27.70;99.90
19908;DHT22;10116;53.112;7.356;2022-07-09T08:52:45;27.70;99.90
19908;DHT22;10116;53.112;7.356;2022-07-09T08:55:12;27.70;99.90
19908;DHT22;10116;53.112;7.356;2022-07-09T08:57:38;27.70;99.90
19908;DHT22;10116;53.112;7.356;2022-07-09T09:00:05;27.70;99.90
19908;DHT22;10116;53.112;7.356;2022-07-09T09:02:37;27.70;99.90
19908;DHT22;10116;53.112;7.356;2022-07-09T09:05:13;27.70;99.90
19908;DHT22;10116;53.112;7.356;2022-07-09T09:07:41;27.70;99.90
19908;DHT22;10116;53.112;7.356;2022-07-09T09:10:07;27.70;99.90
19908;DHT22;10116;53.112;7.356;2022-07-09T09:12:32;27.70;99.90
19908;DHT22;10116;53.112;7.356;2022-07-09T09:14:58;27.70;99.90
19908;DHT22;10116;53.112;7.356;2022-07-09T09:17:23;27.60;99.90
19908;DHT22;10116;53.112;7.356;2022-07-09T09:19:49;27.60;99.90
19908;DHT22;10116;53.112;7.356;2022-07-09T09:22:16;27.60;99.90
19908;DHT22;10116;53.112;7.356;2022-07-09T09:24:42;27.60;99.90
19908;DHT22;10116;53.112;7.356;2022-07-09T09:27:08;27.60;99.90
19908;DHT22;10116;53.112;7.356;2022-07-09T09:29:34;27.60;99.90
19908;DHT22;10116;53.112;7.356;2022-07-09T09:32:11;27.60;99.90
19908;DHT22;10116;53.112;7.356;2022-07-09T09:34:36;27.60;99.90
19908;DHT22;10116;53.112;7.356;2022-07-09T09:37:02;27.60;99.90
19908;DHT22;10116;53.112;7.356;2022-07-09T09:39:29;27.60;99.90
19908;DHT22;10116;53.112;7.356;2022-07-09T09:41:56;27.60;99.90
19908;DHT22;10116;53.112;7.356;2022-07-09T09:44:23;27.60;99.90
19908;DHT22;10116;53.112;7.356;2022-07-09T09:46:51;27.60;99.90
19908;DHT22;10116;53.112;7.356;2022-07-09T09:49:17;27.60;99.90
19908;DHT22;10116;53.112;7.356;2022-07-09T09:52:06;27.60;99.90
19908;DHT22;10116;53.112;7.356;2022-07-09T09:54:34;27.60;99.90
19908;DHT22;10116;53.112;7.356;2022-07-09T09:57:02;27.60;99.90
19908;DHT22;10116;53.112;7.356;2022-07-09T09:59:30;27.60;99.90
19908;DHT22;10116;53.112;7.356;2022-07-09T10:01:56;27.70;99.90
19908;DHT22;10116;53.112;7.356;2022-07-09T10:04:22;27.70;99.90
19908;DHT22;10116;53.112;7.356;2022-07-09T10:06:47;27.80;99.90
19908;DHT22;10116;53.112;7.356;2022-07-09T10:09:14;27.80;99.90
19908;DHT22;10116;53.112;7.356;2022-07-09T10:11:43;27.90;99.90
19908;DHT22;10116;53.112;7.356;2022-07-09T10:16:52;28.00;99.90
19908;DHT22;10116;53.112;7.356;2022-07-09T10:19:27;28.00;99.90
19908;DHT22;10116;53.112;7.356;2022-07-09T10:21:55;28.00;99.90
19908;DHT22;10116;53.112;7.356;2022-07-09T10:29:28;28.10;99.90
19908;DHT22;10116;53.112;7.356;2022-07-09T10:31:55;28.10;99.90
19908;DHT22;10116;53.112;7.356;2022-07-09T10:34:46;28.10;99.90
19908;DHT22;10116;53.112;7.356;2022-07-09T10:37:15;28.10;99.90
19908;DHT22;10116;53.112;7.356;2022-07-09T10:39:40;28.20;99.90
19908;DHT22;10116;53.112;7.356;2022-07-09T10:42:19;28.20;99.90
19908;DHT22;10116;53.112;7.356;2022-07-09T10:44:45;28.20;99.90
19908;DHT22;10116;53.112;7.356;2022-07-09T10:47:12;28.20;99.90
19908;DHT22;10116;53.112;7.356;2022-07-09T10:49:38;28.20;99.90
19908;DHT22;10116;53.112;7.356;2022-07-09T10:52:07;28.20;99.90
19908;DHT22;10116;53.112;7.356;2022-07-09T10:54:34;28.20;99.90
19908;DHT22;10116;53.112;7.356;2022-07-09T10:57:00;28.30;99.90
19908;DHT22;10116;53.112;7.356;2022-07-09T10:59:25;28.30;99.90
19908;DHT22;10116;53.112;7.356;2022-07-09T11:01:51;28.30;99.90
19908;DHT22;10116;53.112;7.356;2022-07-09T11:04:31;28.30;99.90
19908;DHT22;10116;53.112;7.356;2022-07-09T11:06:58;28.30;99.90
19908;DHT22;10116;53.112;7.356;2022-07-09T11:09:27;28.30;99.90
19908;DHT22;10116;53.112;7.356;2022-07-09T11:11:56;28.30;99.90
19908;DHT22;10116;53.112;7.356;2022-07-09T11:14:22;28.20;99.90
19908;DHT22;10116;53.112;7.356;2022-07-09T11:16:55;28.20;99.90
19908;DHT22;10116;53.112;7.356;2022-07-09T11:19:21;28.20;99.90
19908;DHT22;10116;53.112;7.356;2022-07-09T11:21:47;28.10;99.90
19908;DHT22;10116;53.112;7.356;2022-07-09T11:26:39;28.10;99.90
19908;DHT22;10116;53.112;7.356;2022-07-09T11:29:07;28.10;99.90
19908;DHT22;10116;53.112;7.356;2022-07-09T11:31:33;28.20;99.90
19908;DHT22;10116;53.112;7.356;2022-07-09T11:33:59;28.20;99.90
19908;DHT22;10116;53.112;7.356;2022-07-09T11:36:38;28.20;99.90
19908;DHT22;10116;53.112;7.356;2022-07-09T11:39:04;28.10;99.90
19908;DHT22;10116;53.112;7.356;2022-07-09T11:41:43;28.20;99.90
19908;DHT22;10116;53.112;7.356;2022-07-09T11:44:09;28.20;99.90
19908;DHT22;10116;53.112;7.356;2022-07-09T11:46:35;28.20;99.90
19908;DHT22;10116;53.112;7.356;2022-07-09T11:49:02;28.20;99.90
19908;DHT22;10116;53.112;7.356;2022-07-09T11:51:32;28.20;99.90
19908;DHT22;10116;53.112;7.356;2022-07-09T11:54:02;28.20;99.90
19908;DHT22;10116;53.112;7.356;2022-07-09T11:56:39;28.20;99.90
19908;DHT22;10116;53.112;7.356;2022-07-09T11:59:04;28.20;99.90
19908;DHT22;10116;53.112;7.356;2022-07-09T12:01:30;28.20;99.90
19908;DHT22;10116;53.112;7.356;2022-07-09T12:03:55;28.20;99.90
19908;DHT22;10116;53.112;7.356;2022-07-09T12:06:22;28.20;99.90
19908;DHT22;10116;53.112;7.356;2022-07-09T12:08:47;28.30;99.90
19908;DHT22;10116;53.112;7.356;2022-07-09T12:11:27;28.30;99.90
19908;DHT22;10116;53.112;7.356;2022-07-09T12:13:53;28.30;99.90
19908;DHT22;10116;53.112;7.356;2022-07-09T12:16:18;28.30;99.90
19908;DHT22;10116;53.112;7.356;2022-07-09T12:18:44;28.40;99.90
19908;DHT22;10116;53.112;7.356;2022-07-09T12:21:10;28.40;99.90
19908;DHT22;10116;53.112;7.356;2022-07-09T12:23:36;28.40;99.90
19908;DHT22;10116;53.112;7.356;2022-07-09T12:26:01;28.40;99.90
19908;DHT22;10116;53.112;7.356;2022-07-09T12:28:27;28.30;99.90
19908;DHT22;10116;53.112;7.356;2022-07-09T12:30:52;28.30;99.90
19908;DHT22;10116;53.112;7.356;2022-07-09T12:33:18;28.30;99.90
19908;DHT22;10116;53.112;7.356;2022-07-09T12:35:44;28.30;99.90
19908;DHT22;10116;53.112;7.356;2022-07-09T12:38:09;28.30;99.90
19908;DHT22;10116;53.112;7.356;2022-07-09T12:40:35;28.40;99.90
19908;DHT22;10116;53.112;7.356;2022-07-09T12:43:01;28.40;99.90
19908;DHT22;10116;53.112;7.356;2022-07-09T12:45:27;28.40;99.90
19908;DHT22;10116;53.112;7.356;2022-07-09T12:47:52;28.40;99.90
19908;DHT22;10116;53.112;7.356;2022-07-09T12:50:18;28.40;99.90
19908;DHT22;10116;53.112;7.356;2022-07-09T12:52:43;28.40;99.90
19908;DHT22;10116;53.112;7.356;2022-07-09T12:55:10;28.40;99.90
19908;DHT22;10116;53.112;7.356;2022-07-09T12:57:36;28.40;99.90
19908;DHT22;10116;53.112;7.356;2022-07-09T13:00:04;28.40;99.90
19908;DHT22;10116;53.112;7.356;2022-07-09T13:02:30;28.40;99.90
19908;DHT22;10116;53.112;7.356;2022-07-09T13:04:55;28.40;99.90
19908;DHT22;10116;53.112;7.356;2022-07-09T13:07:21;28.40;99.90
19908;DHT22;10116;53.112;7.356;2022-07-09T13:09:47;28.30;99.90
19908;DHT22;10116;53.112;7.356;2022-07-09T13:12:13;28.30;99.90
19908;DHT22;10116;53.112;7.356;2022-07-09T13:14:39;28.30;99.90
19908;DHT22;10116;53.112;7.356;2022-07-09T13:17:04;28.40;99.90
19908;DHT22;10116;53.112;7.356;2022-07-09T13:19:30;28.40;99.90
19908;DHT22;10116;53.112;7.356;2022-07-09T13:21:56;28.50;99.90
19908;DHT22;10116;53.112;7.356;2022-07-09T13:24:21;28.50;99.90
19908;DHT22;10116;53.112;7.356;2022-07-09T13:26:47;28.50;99.90
19908;DHT22;10116;53.112;7.356;2022-07-09T13:29:12;28.50;99.90
19908;DHT22;10116;53.112;7.356;2022-07-09T13:31:38;28.50;99.90
19908;DHT22;10116;53.112;7.356;2022-07-09T13:34:03;28.50;99.90
19908;DHT22;10116;53.112;7.356;2022-07-09T13:36:29;28.60;99.90
19908;DHT22;10116;53.112;7.356;2022-07-09T13:38:55;28.60;99.90
19908;DHT22;10116;53.112;7.356;2022-07-09T13:41:21;28.60;99.90
19908;DHT22;10116;53.112;7.356;2022-07-09T13:43:46;28.60;99.90
19908;DHT22;10116;53.112;7.356;2022-07-09T13:46:12;28.60;99.90
19908;DHT22;10116;53.112;7.356;2022-07-09T13:48:38;28.60;99.90
19908;DHT22;10116;53.112;7.356;2022-07-09T13:51:04;28.60;99.90
19908;DHT22;10116;53.112;7.356;2022-07-09T13:53:30;28.60;99.90
19908;DHT22;10116;53.112;7.356;2022-07-09T13:55:58;28.60;99.90
19908;DHT22;10116;53.112;7.356;2022-07-09T13:58:24;28.50;99.90
19908;DHT22;10116;53.112;7.356;2022-07-09T14:00:49;28.50;99.90
19908;DHT22;10116;53.112;7.356;2022-07-09T14:03:15;28.60;99.90
19908;DHT22;10116;53.112;7.356;2022-07-09T14:05:41;28.60;99.90
19908;DHT22;10116;53.112;7.356;2022-07-09T14:08:07;28.60;99.90
19908;DHT22;10116;53.112;7.356;2022-07-09T14:10:33;28.60;99.90
19908;DHT22;10116;53.112;7.356;2022-07-09T14:12:59;28.60;99.90
19908;DHT22;10116;53.112;7.356;2022-07-09T14:15:25;28.60;99.90
19908;DHT22;10116;53.112;7.356;2022-07-09T14:17:51;28.60;99.90
19908;DHT22;10116;53.112;7.356;2022-07-09T14:20:16;28.50;99.90
19908;DHT22;10116;53.112;7.356;2022-07-09T14:22:42;28.50;99.90
19908;DHT22;10116;53.112;7.356;2022-07-09T14:25:08;28.50;99.90
19908;DHT22;10116;53.112;7.356;2022-07-09T14:27:34;28.50;99.90
19908;DHT22;10116;53.112;7.356;2022-07-09T14:29:59;28.50;99.90
19908;DHT22;10116;53.112;7.356;2022-07-09T14:32:25;28.50;99.90
19908;DHT22;10116;53.112;7.356;2022-07-09T14:34:50;28.40;99.90
19908;DHT22;10116;53.112;7.356;2022-07-09T14:37:17;28.40;99.90
19908;DHT22;10116;53.112;7.356;2022-07-09T14:39:43;28.40;99.90
19908;DHT22;10116;53.112;7.356;2022-07-09T14:42:08;28.40;99.90
19908;DHT22;10116;53.112;7.356;2022-07-09T14:44:34;28.40;99.90
19908;DHT22;10116;53.112;7.356;2022-07-09T14:46:59;28.30;99.90
19908;DHT22;10116;53.112;7.356;2022-07-09T14:49:26;28.40;99.90
19908;DHT22;10116;53.112;7.356;2022-07-09T14:51:51;28.40;99.90
19908;DHT22;10116;53.112;7.356;2022-07-09T14:54:17;28.50;99.90
19908;DHT22;10116;53.112;7.356;2022-07-09T14:56:43;28.50;99.90
19908;DHT22;10116;53.112;7.356;2022-07-09T14:59:09;28.50;99.90
19908;DHT22;10116;53.112;7.356;2022-07-09T15:01:36;28.50;99.90
19908;DHT22;10116;53.112;7.356;2022-07-09T15:04:02;28.50;99.90
19908;DHT22;10116;53.112;7.356;2022-07-09T15:06:27;28.50;99.90
19908;DHT22;10116;53.112;7.356;2022-07-09T15:08:54;28.50;99.90
19908;DHT22;10116;53.112;7.356;2022-07-09T15:11:19;28.50;99.90
19908;DHT22;10116;53.112;7.356;2022-07-09T15:13:45;28.50;99.90
19908;DHT22;10116;53.112;7.356;2022-07-09T15:16:10;28.50;99.90
19908;DHT22;10116;53.112;7.356;2022-07-09T15:18:36;28.40;99.90
19908;DHT22;10116;53.112;7.356;2022-07-09T15:21:03;28.40;99.90
19908;DHT22;10116;53.112;7.356;2022-07-09T15:23:30;28.40;99.90
19908;DHT22;10116;53.112;7.356;2022-07-09T15:25:55;28.40;99.90
19908;DHT22;10116;53.112;7.356;2022-07-09T15:28:21;28.30;99.90
19908;DHT22;10116;53.112;7.356;2022-07-09T15:30:47;28.30;99.90
19908;DHT22;10116;53.112;7.356;2022-07-09T15:33:13;28.30;99.90
19908;DHT22;10116;53.112;7.356;2022-07-09T15:35:41;28.30;99.90